Pagrindinis puslapis
METAR-TAF:

METAR-TAF

Oro uostai :

Siudad Chuaresas, Meksika

platuma: 31-38N, ilguma: 106-26W, Aukštis: 1171 m

Dabartinis oras

Ataskaita buvo paskelbta 9 valandos ir 41 minutes, ne 02:47 UTC
Ramus vėjas
Temperatūra 23°C
Drėgmė 33%
Slėgis 1023 hPa
Matomumas: 16.1 km
Išsisklaidę debesys ne aukštis 25000 ft

METAR: MMCS 230247Z 00000KT 10SM SCT250 23/06 A3022 RMK SLP141 57003 991 8/005

Laikas: 06:28 (12:28 UTC)

Prognozė

Ataskaita buvo paskelbta 9 valandos ir 32 minutes, ne 02:56 UTC
Prognozė galioja nuo 23 metu 06 UTC su 24 metu 06 UTC
Vėjas kt iš Šiaurės
Matomumas: 10 km
Išsisklaidę debesys ne aukštis 25000 ft
Nuo 23 metu 1800 UTC
Vėjas 10 kt iš Pietryčių
Matomumas: 10 km
Išsisklaidę debesys ne aukštis 12000 ft
Su prošvaistėmis ne aukštis 25000 ft
Nuo 24 metu 0500 UTC
Vėjas 5 kt iš Rytų
Matomumas: 10 km
Išsisklaidę debesys ne aukštis 25000 ft

TAF: MMCS 230256Z 2306/2406 00000KT P6SM SCT250 FM231800 13010KT P6SM SCT120 BKN250 FM240500 09005KT P6SM SCT250

Orai ataskaitas ir orų prognozės (METAR, TAF).

turimą stotys yra geltonos ir raudonos taškus žemėlapyje.

Perkelti pele per norėdami pamatyti stoties vardą.

Tada spustelėkite, norėdami matyti oro stebėjimo ir prognozės.

Norėdami pakeisti žemėlapį: spustelėkite ant žalios mygtukų su juodo kryžiaus žemyn,; žalią mygtuką su brūkšneliu, jei norite nutolinti; arba žalių rodyklių gretimoms žemėlapius.


METAR-TAF: